SPMAZ EPPG-LIPQ
Flight info
| Callsign | SPMAZ |
|---|---|
| Flight time | 2h 8m |
| Altitude | 26000 |
| Route | OBOLA IFR DCT ERNOX P861 LATAG DCT VOZ Z30 LUPEV DCT ARNOS P125 LUPIN |
| Aircraft | P46T/L-SBDGRWY/SB1 |
Departure
| Time | 2026-05-05 14:01 |
|---|---|
| Airport | Kakolewo (former military) (EPPG) |
Arrival
| Time | 2026-05-05 16:09 |
|---|---|
| Airport | Trieste Airport (LIPQ) |
| Time | Latitude | Longitude | Altitude | Speed | Heading |
|---|---|---|---|---|---|
| 2026-05-05 13:25 | 52.23678 | 16.24410 | 321 ft | 0 kts | 106° |
| 2026-05-05 13:51 | 52.23677 | 16.24413 | 326 ft | 1 kts | 101° |
| 2026-05-05 13:51 | 52.23677 | 16.24414 | 322 ft | 0 kts | 101° |
| 2026-05-05 13:51 | 52.23663 | 16.24410 | 324 ft | 7 kts | 208° |
| 2026-05-05 13:51 | 52.23635 | 16.24455 | 322 ft | 9 kts | 105° |
| 2026-05-05 13:52 | 52.23612 | 16.24590 | 323 ft | 15 kts | 107° |
| 2026-05-05 13:52 | 52.23578 | 16.24785 | 328 ft | 19 kts | 107° |
| 2026-05-05 13:52 | 52.23543 | 16.24979 | 331 ft | 19 kts | 105° |
| 2026-05-05 13:52 | 52.23508 | 16.25173 | 332 ft | 16 kts | 106° |
| 2026-05-05 13:53 | 52.23477 | 16.25347 | 335 ft | 18 kts | 105° |
| 2026-05-05 13:53 | 52.23444 | 16.25536 | 335 ft | 16 kts | 107° |
| 2026-05-05 13:53 | 52.23411 | 16.25726 | 334 ft | 20 kts | 105° |
| 2026-05-05 13:53 | 52.23375 | 16.25929 | 335 ft | 16 kts | 105° |
| 2026-05-05 13:54 | 52.23350 | 16.26040 | 334 ft | 8 kts | 142° |
| 2026-05-05 13:54 | 52.23295 | 16.26026 | 336 ft | 9 kts | 196° |
| 2026-05-05 13:54 | 52.23259 | 16.26010 | 336 ft | 0 kts | 195° |
| 2026-05-05 13:59 | 52.23241 | 16.26000 | 335 ft | 7 kts | 196° |
| 2026-05-05 14:00 | 52.23207 | 16.25811 | 335 ft | 25 kts | 285° |
| 2026-05-05 14:00 | 52.23306 | 16.25254 | 333 ft | 77 kts | 291° |
| 2026-05-05 14:00 | 52.23491 | 16.24191 | 368 ft | 113 kts | 285° |
| 2026-05-05 14:00 | 52.23676 | 16.22969 | 789 ft | 110 kts | 289° |
| 2026-05-05 14:01 | 52.23884 | 16.21754 | 1238 ft | 110 kts | 289° |
| 2026-05-05 14:01 | 52.23800 | 16.20463 | 1535 ft | 127 kts | 242° |
| 2026-05-05 14:01 | 52.23086 | 16.19601 | 1919 ft | 134 kts | 197° |
| 2026-05-05 14:01 | 52.22132 | 16.19494 | 2344 ft | 137 kts | 168° |
| 2026-05-05 14:02 | 52.21328 | 16.20252 | 2766 ft | 142 kts | 141° |
| 2026-05-05 14:02 | 52.20387 | 16.20939 | 3113 ft | 150 kts | 169° |
| 2026-05-05 14:02 | 52.19352 | 16.20913 | 3548 ft | 149 kts | 194° |
| 2026-05-05 14:02 | 52.18436 | 16.20199 | 3942 ft | 148 kts | 218° |
| 2026-05-05 14:03 | 52.17634 | 16.19138 | 4354 ft | 147 kts | 219° |
| 2026-05-05 14:03 | 52.16807 | 16.18147 | 4801 ft | 147 kts | 217° |
| 2026-05-05 14:03 | 52.15986 | 16.17201 | 5225 ft | 146 kts | 217° |
| 2026-05-05 14:03 | 52.15150 | 16.16238 | 5650 ft | 146 kts | 217° |
| 2026-05-05 14:04 | 52.14316 | 16.15288 | 6081 ft | 145 kts | 217° |
| 2026-05-05 14:04 | 52.13493 | 16.14351 | 6474 ft | 146 kts | 217° |
| 2026-05-05 14:04 | 52.12660 | 16.13402 | 6866 ft | 147 kts | 217° |
| 2026-05-05 14:04 | 52.11817 | 16.12442 | 7274 ft | 147 kts | 217° |
| 2026-05-05 14:05 | 52.10976 | 16.11485 | 7678 ft | 147 kts | 218° |
| 2026-05-05 14:05 | 52.10149 | 16.10545 | 8063 ft | 147 kts | 218° |
| 2026-05-05 14:05 | 52.09319 | 16.09601 | 8455 ft | 146 kts | 218° |
| 2026-05-05 14:05 | 52.08484 | 16.08652 | 8850 ft | 146 kts | 218° |
| 2026-05-05 14:06 | 52.07646 | 16.07700 | 9253 ft | 146 kts | 218° |
| 2026-05-05 14:06 | 52.06812 | 16.06754 | 9642 ft | 146 kts | 218° |
| 2026-05-05 14:06 | 52.05987 | 16.05817 | 9996 ft | 147 kts | 218° |
| 2026-05-05 14:06 | 52.05144 | 16.04862 | 10337 ft | 147 kts | 218° |
| 2026-05-05 14:07 | 52.04300 | 16.03905 | 10688 ft | 148 kts | 218° |
| 2026-05-05 14:07 | 52.03452 | 16.02944 | 11042 ft | 149 kts | 218° |
| 2026-05-05 14:07 | 52.02598 | 16.01987 | 11392 ft | 150 kts | 216° |
| 2026-05-05 14:07 | 52.01686 | 16.01167 | 11720 ft | 151 kts | 213° |
| 2026-05-05 14:08 | 52.00766 | 16.00337 | 12087 ft | 151 kts | 213° |
| 2026-05-05 14:08 | 51.99851 | 15.99508 | 12419 ft | 152 kts | 213° |
| 2026-05-05 14:08 | 51.98920 | 15.98667 | 12774 ft | 153 kts | 213° |
| 2026-05-05 14:08 | 51.97988 | 15.97825 | 13124 ft | 154 kts | 213° |
| 2026-05-05 14:09 | 51.97056 | 15.96983 | 13466 ft | 155 kts | 213° |
| 2026-05-05 14:09 | 51.96109 | 15.96128 | 13800 ft | 155 kts | 213° |
| 2026-05-05 14:09 | 51.95171 | 15.95282 | 14093 ft | 156 kts | 213° |
| 2026-05-05 14:09 | 51.94212 | 15.94417 | 14385 ft | 157 kts | 213° |
| 2026-05-05 14:10 | 51.93248 | 15.93548 | 14679 ft | 158 kts | 213° |
| 2026-05-05 14:10 | 51.92293 | 15.92688 | 14960 ft | 159 kts | 213° |
| 2026-05-05 14:10 | 51.91328 | 15.91820 | 15234 ft | 160 kts | 213° |
| 2026-05-05 14:10 | 51.90343 | 15.90934 | 15513 ft | 161 kts | 213° |
| 2026-05-05 14:11 | 51.89359 | 15.90049 | 15794 ft | 162 kts | 213° |
| 2026-05-05 14:11 | 51.88376 | 15.89166 | 16081 ft | 162 kts | 213° |
| 2026-05-05 14:11 | 51.87393 | 15.88283 | 16373 ft | 163 kts | 213° |
| 2026-05-05 14:11 | 51.86399 | 15.87390 | 16658 ft | 165 kts | 213° |
| 2026-05-05 14:12 | 51.85394 | 15.86489 | 16958 ft | 165 kts | 214° |
| 2026-05-05 14:12 | 51.84383 | 15.85582 | 17257 ft | 166 kts | 214° |
| 2026-05-05 14:12 | 51.83368 | 15.84672 | 17557 ft | 167 kts | 214° |
| 2026-05-05 14:12 | 51.82358 | 15.83767 | 17847 ft | 168 kts | 214° |
| 2026-05-05 14:13 | 51.81327 | 15.82843 | 18137 ft | 169 kts | 214° |
| 2026-05-05 14:13 | 51.80295 | 15.81920 | 18387 ft | 170 kts | 214° |
| 2026-05-05 14:13 | 51.79264 | 15.80998 | 18643 ft | 170 kts | 214° |
| 2026-05-05 14:13 | 51.78222 | 15.80066 | 18902 ft | 171 kts | 214° |
| 2026-05-05 14:14 | 51.77174 | 15.79130 | 19168 ft | 171 kts | 213° |
| 2026-05-05 14:14 | 51.76139 | 15.78206 | 19419 ft | 172 kts | 213° |
| 2026-05-05 14:14 | 51.75083 | 15.77263 | 19678 ft | 172 kts | 213° |
| 2026-05-05 14:14 | 51.74044 | 15.76336 | 19928 ft | 173 kts | 213° |
| 2026-05-05 14:15 | 51.72981 | 15.75388 | 20186 ft | 174 kts | 213° |
| 2026-05-05 14:15 | 51.71889 | 15.74544 | 20427 ft | 177 kts | 203° |
| 2026-05-05 14:15 | 51.70698 | 15.74062 | 20669 ft | 178 kts | 200° |
| 2026-05-05 14:15 | 51.69518 | 15.73565 | 21086 ft | 169 kts | 200° |
| 2026-05-05 14:16 | 51.68415 | 15.73107 | 21580 ft | 159 kts | 200° |
| 2026-05-05 14:16 | 51.67356 | 15.72664 | 21873 ft | 160 kts | 200° |
| 2026-05-05 14:16 | 51.66273 | 15.72211 | 22182 ft | 160 kts | 200° |
| 2026-05-05 14:16 | 51.65202 | 15.71764 | 22491 ft | 160 kts | 200° |
| 2026-05-05 14:17 | 51.64117 | 15.71311 | 22794 ft | 161 kts | 200° |
| 2026-05-05 14:17 | 51.63027 | 15.70857 | 23101 ft | 161 kts | 200° |
| 2026-05-05 14:17 | 51.61947 | 15.70408 | 23401 ft | 162 kts | 200° |
| 2026-05-05 14:17 | 51.60850 | 15.69951 | 23651 ft | 163 kts | 200° |
| 2026-05-05 14:18 | 51.59764 | 15.69499 | 23900 ft | 163 kts | 200° |
| 2026-05-05 14:18 | 51.58661 | 15.69041 | 24144 ft | 164 kts | 200° |
| 2026-05-05 14:18 | 51.57553 | 15.68581 | 24385 ft | 165 kts | 200° |
| 2026-05-05 14:18 | 51.56437 | 15.68117 | 24638 ft | 166 kts | 200° |
| 2026-05-05 14:19 | 51.55324 | 15.67656 | 24879 ft | 167 kts | 200° |
| 2026-05-05 14:19 | 51.54194 | 15.67187 | 25124 ft | 168 kts | 200° |
| 2026-05-05 14:19 | 51.53055 | 15.66715 | 25371 ft | 168 kts | 200° |
| 2026-05-05 14:19 | 51.51932 | 15.66249 | 25615 ft | 169 kts | 200° |
| 2026-05-05 14:20 | 51.50783 | 15.65772 | 25817 ft | 173 kts | 200° |
| 2026-05-05 14:20 | 51.49571 | 15.65262 | 25830 ft | 186 kts | 200° |
| 2026-05-05 14:20 | 51.48291 | 15.64727 | 25830 ft | 197 kts | 200° |
| 2026-05-05 14:20 | 51.46940 | 15.64167 | 25833 ft | 202 kts | 200° |
| 2026-05-05 14:21 | 51.45570 | 15.63602 | 25827 ft | 203 kts | 200° |
| 2026-05-05 14:21 | 51.44194 | 15.63035 | 25828 ft | 205 kts | 200° |
| 2026-05-05 14:21 | 51.42820 | 15.62468 | 25825 ft | 206 kts | 199° |
| 2026-05-05 14:21 | 51.41428 | 15.61894 | 25826 ft | 206 kts | 199° |
| 2026-05-05 14:22 | 51.40051 | 15.61326 | 25825 ft | 207 kts | 199° |
| 2026-05-05 14:22 | 51.38649 | 15.60749 | 25823 ft | 207 kts | 199° |
| 2026-05-05 14:22 | 51.37244 | 15.60170 | 25821 ft | 208 kts | 199° |
| 2026-05-05 14:22 | 51.35848 | 15.59598 | 25822 ft | 208 kts | 199° |
| 2026-05-05 14:23 | 51.34453 | 15.59023 | 25822 ft | 208 kts | 199° |
| 2026-05-05 14:23 | 51.33044 | 15.58443 | 25820 ft | 209 kts | 199° |
| 2026-05-05 14:23 | 51.31630 | 15.57863 | 25819 ft | 209 kts | 199° |
| 2026-05-05 14:23 | 51.30233 | 15.57291 | 25820 ft | 209 kts | 199° |
| 2026-05-05 14:24 | 51.28815 | 15.56709 | 25818 ft | 209 kts | 199° |
| 2026-05-05 14:24 | 51.27419 | 15.56137 | 25817 ft | 209 kts | 199° |
| 2026-05-05 14:24 | 51.26004 | 15.55558 | 25815 ft | 210 kts | 199° |
| 2026-05-05 14:24 | 51.24583 | 15.54976 | 25818 ft | 210 kts | 199° |
| 2026-05-05 14:25 | 51.23180 | 15.54403 | 25814 ft | 210 kts | 199° |
| 2026-05-05 14:25 | 51.21757 | 15.53820 | 25816 ft | 210 kts | 199° |
| 2026-05-05 14:25 | 51.20350 | 15.53245 | 25814 ft | 210 kts | 199° |
| 2026-05-05 14:25 | 51.18919 | 15.52661 | 25813 ft | 210 kts | 199° |
| 2026-05-05 14:26 | 51.17515 | 15.52089 | 25810 ft | 210 kts | 199° |
| 2026-05-05 14:26 | 51.16094 | 15.51510 | 25805 ft | 210 kts | 199° |
| 2026-05-05 14:26 | 51.14686 | 15.50936 | 25806 ft | 210 kts | 199° |
| 2026-05-05 14:26 | 51.13256 | 15.50354 | 25808 ft | 210 kts | 199° |
| 2026-05-05 14:27 | 51.11850 | 15.49782 | 25805 ft | 210 kts | 199° |
| 2026-05-05 14:27 | 51.10423 | 15.49201 | 25802 ft | 210 kts | 199° |
| 2026-05-05 14:27 | 51.09000 | 15.48623 | 25802 ft | 210 kts | 199° |
| 2026-05-05 14:27 | 51.07596 | 15.48053 | 25798 ft | 211 kts | 199° |
| 2026-05-05 14:28 | 51.06165 | 15.47472 | 25799 ft | 211 kts | 199° |
| 2026-05-05 14:28 | 51.04754 | 15.46900 | 25799 ft | 211 kts | 199° |
| 2026-05-05 14:28 | 51.03327 | 15.46322 | 25799 ft | 211 kts | 198° |
| 2026-05-05 14:28 | 51.01918 | 15.45751 | 25803 ft | 211 kts | 198° |
| 2026-05-05 14:29 | 51.00487 | 15.45171 | 25800 ft | 211 kts | 198° |
| 2026-05-05 14:29 | 50.99077 | 15.44601 | 25799 ft | 211 kts | 198° |
| 2026-05-05 14:29 | 50.97646 | 15.44022 | 25802 ft | 211 kts | 198° |
| 2026-05-05 14:29 | 50.96231 | 15.43451 | 25799 ft | 211 kts | 198° |
| 2026-05-05 14:30 | 50.94802 | 15.42873 | 25799 ft | 211 kts | 198° |
| 2026-05-05 14:30 | 50.93387 | 15.42302 | 25797 ft | 211 kts | 198° |
| 2026-05-05 14:30 | 50.91960 | 15.41727 | 25798 ft | 211 kts | 198° |
| 2026-05-05 14:30 | 50.90527 | 15.41149 | 25796 ft | 212 kts | 198° |
| 2026-05-05 14:31 | 50.89116 | 15.40581 | 25797 ft | 212 kts | 198° |
| 2026-05-05 14:31 | 50.87669 | 15.39998 | 25795 ft | 212 kts | 198° |
| 2026-05-05 14:31 | 50.86237 | 15.39423 | 25794 ft | 212 kts | 198° |
| 2026-05-05 14:31 | 50.84821 | 15.38853 | 25796 ft | 212 kts | 198° |
| 2026-05-05 14:32 | 50.83385 | 15.38276 | 25794 ft | 212 kts | 198° |
| 2026-05-05 14:32 | 50.81960 | 15.37703 | 25792 ft | 213 kts | 198° |
| 2026-05-05 14:32 | 50.80518 | 15.37125 | 25792 ft | 213 kts | 198° |
| 2026-05-05 14:32 | 50.79096 | 15.36555 | 25789 ft | 213 kts | 198° |
| 2026-05-05 14:33 | 50.77656 | 15.35980 | 25791 ft | 212 kts | 198° |
| 2026-05-05 14:33 | 50.76221 | 15.35402 | 25792 ft | 212 kts | 198° |
| 2026-05-05 14:33 | 50.74798 | 15.34833 | 25789 ft | 213 kts | 198° |
| 2026-05-05 14:33 | 50.73355 | 15.34256 | 25791 ft | 213 kts | 198° |
| 2026-05-05 14:34 | 50.71930 | 15.33686 | 25789 ft | 213 kts | 198° |
| 2026-05-05 14:34 | 50.70489 | 15.33111 | 25786 ft | 214 kts | 198° |
| 2026-05-05 14:34 | 50.69044 | 15.32533 | 25786 ft | 214 kts | 198° |
| 2026-05-05 14:34 | 50.67594 | 15.31955 | 25786 ft | 214 kts | 198° |
| 2026-05-05 14:35 | 50.66148 | 15.31379 | 25783 ft | 213 kts | 198° |
| 2026-05-05 14:35 | 50.64726 | 15.30812 | 25783 ft | 214 kts | 198° |
| 2026-05-05 14:35 | 50.63280 | 15.30236 | 25783 ft | 214 kts | 198° |
| 2026-05-05 14:35 | 50.61831 | 15.29659 | 25783 ft | 214 kts | 198° |
| 2026-05-05 14:36 | 50.60395 | 15.29089 | 25782 ft | 214 kts | 198° |
| 2026-05-05 14:36 | 50.58958 | 15.28517 | 25780 ft | 213 kts | 198° |
| 2026-05-05 14:36 | 50.57509 | 15.27942 | 25777 ft | 214 kts | 198° |
| 2026-05-05 14:36 | 50.56077 | 15.27373 | 25778 ft | 214 kts | 198° |
| 2026-05-05 14:37 | 50.54625 | 15.26796 | 25777 ft | 215 kts | 198° |
| 2026-05-05 14:37 | 50.53170 | 15.26219 | 25775 ft | 215 kts | 198° |
| 2026-05-05 14:37 | 50.51731 | 15.25650 | 25774 ft | 215 kts | 198° |
| 2026-05-05 14:37 | 50.50272 | 15.25072 | 25769 ft | 215 kts | 198° |
| 2026-05-05 14:38 | 50.48829 | 15.24501 | 25771 ft | 215 kts | 198° |
| 2026-05-05 14:38 | 50.47369 | 15.23923 | 25771 ft | 215 kts | 198° |
| 2026-05-05 14:38 | 50.45925 | 15.23353 | 25771 ft | 215 kts | 198° |
| 2026-05-05 14:38 | 50.44473 | 15.22780 | 25766 ft | 215 kts | 198° |
| 2026-05-05 14:39 | 50.43033 | 15.22210 | 25767 ft | 215 kts | 198° |
| 2026-05-05 14:39 | 50.41575 | 15.21637 | 25770 ft | 215 kts | 198° |
| 2026-05-05 14:39 | 50.40123 | 15.21064 | 25765 ft | 215 kts | 198° |
| 2026-05-05 14:39 | 50.38683 | 15.20496 | 25766 ft | 215 kts | 198° |
| 2026-05-05 14:40 | 50.37230 | 15.19924 | 25765 ft | 214 kts | 198° |
| 2026-05-05 14:40 | 50.35794 | 15.19359 | 25762 ft | 214 kts | 198° |
| 2026-05-05 14:40 | 50.34356 | 15.18794 | 25759 ft | 214 kts | 198° |
| 2026-05-05 14:40 | 50.32902 | 15.18223 | 25769 ft | 214 kts | 198° |
| 2026-05-05 14:41 | 50.31460 | 15.17656 | 25768 ft | 215 kts | 198° |
| 2026-05-05 14:41 | 50.30004 | 15.17084 | 25768 ft | 215 kts | 198° |
| 2026-05-05 14:41 | 50.28565 | 15.16519 | 25766 ft | 215 kts | 198° |
| 2026-05-05 14:41 | 50.27107 | 15.15948 | 25761 ft | 215 kts | 198° |
| 2026-05-05 14:42 | 50.25663 | 15.15383 | 25762 ft | 215 kts | 198° |
| 2026-05-05 14:42 | 50.24206 | 15.14813 | 25762 ft | 215 kts | 198° |
| 2026-05-05 14:42 | 50.22760 | 15.14247 | 25764 ft | 215 kts | 198° |
| 2026-05-05 14:42 | 50.21305 | 15.13678 | 25764 ft | 215 kts | 197° |
| 2026-05-05 14:43 | 50.19879 | 15.13121 | 25763 ft | 214 kts | 198° |
| 2026-05-05 14:43 | 50.18420 | 15.12551 | 25764 ft | 215 kts | 198° |
| 2026-05-05 14:43 | 50.16967 | 15.11984 | 25769 ft | 215 kts | 197° |
| 2026-05-05 14:43 | 50.15535 | 15.11425 | 25765 ft | 215 kts | 197° |
| 2026-05-05 14:44 | 50.14078 | 15.10857 | 25762 ft | 215 kts | 197° |
| 2026-05-05 14:44 | 50.12623 | 15.10290 | 25766 ft | 215 kts | 197° |
| 2026-05-05 14:44 | 50.11167 | 15.09723 | 25761 ft | 215 kts | 197° |
| 2026-05-05 14:44 | 50.09721 | 15.09161 | 25766 ft | 215 kts | 197° |
| 2026-05-05 14:45 | 50.08278 | 15.08600 | 25768 ft | 215 kts | 197° |
| 2026-05-05 14:45 | 50.06811 | 15.08030 | 25766 ft | 215 kts | 197° |
| 2026-05-05 14:45 | 50.05356 | 15.07465 | 25768 ft | 215 kts | 197° |
| 2026-05-05 14:45 | 50.03916 | 15.06906 | 25766 ft | 215 kts | 197° |
| 2026-05-05 14:46 | 50.02456 | 15.06340 | 25767 ft | 216 kts | 197° |
| 2026-05-05 14:46 | 50.01005 | 15.05777 | 25768 ft | 216 kts | 197° |
| 2026-05-05 14:46 | 50.00039 | 15.05404 | 25768 ft | 216 kts | 197° |
| 2026-05-05 14:46 | 49.98090 | 15.04648 | 25768 ft | 216 kts | 197° |
| 2026-05-05 14:47 | 49.96639 | 15.04086 | 25766 ft | 216 kts | 197° |
| 2026-05-05 14:47 | 49.95669 | 15.03712 | 25769 ft | 216 kts | 197° |
| 2026-05-05 14:47 | 49.93723 | 15.02959 | 25767 ft | 216 kts | 197° |
| 2026-05-05 14:47 | 49.92747 | 15.02583 | 25771 ft | 216 kts | 197° |
| 2026-05-05 14:48 | 49.91292 | 15.02021 | 25773 ft | 216 kts | 197° |
| 2026-05-05 14:48 | 49.89343 | 15.01269 | 25771 ft | 216 kts | 197° |
| 2026-05-05 14:48 | 49.88375 | 15.00896 | 25770 ft | 216 kts | 197° |
| 2026-05-05 14:48 | 49.86432 | 15.00149 | 25768 ft | 216 kts | 197° |
| 2026-05-05 14:49 | 49.85459 | 14.99774 | 25771 ft | 216 kts | 197° |
| 2026-05-05 14:49 | 49.83514 | 14.99024 | 25770 ft | 216 kts | 197° |
| 2026-05-05 14:49 | 49.82539 | 14.98649 | 25773 ft | 216 kts | 197° |
| 2026-05-05 14:49 | 49.81068 | 14.98084 | 25769 ft | 217 kts | 197° |
| 2026-05-05 14:50 | 49.79618 | 14.97528 | 25770 ft | 217 kts | 197° |
| 2026-05-05 14:50 | 49.78146 | 14.96962 | 25772 ft | 216 kts | 197° |
| 2026-05-05 14:50 | 49.76695 | 14.96406 | 25771 ft | 216 kts | 197° |
| 2026-05-05 14:50 | 49.75222 | 14.95841 | 25772 ft | 216 kts | 197° |
| 2026-05-05 14:51 | 49.73776 | 14.95287 | 25773 ft | 216 kts | 197° |
| 2026-05-05 14:51 | 49.72306 | 14.94724 | 25773 ft | 216 kts | 197° |
| 2026-05-05 14:51 | 49.70856 | 14.94169 | 25771 ft | 217 kts | 197° |
| 2026-05-05 14:51 | 49.69383 | 14.93605 | 25768 ft | 217 kts | 197° |
| 2026-05-05 14:52 | 49.67931 | 14.93051 | 25775 ft | 217 kts | 197° |
| 2026-05-05 14:52 | 49.66458 | 14.92489 | 25774 ft | 217 kts | 197° |
| 2026-05-05 14:52 | 49.64989 | 14.91928 | 25771 ft | 217 kts | 197° |
| 2026-05-05 14:52 | 49.63521 | 14.91367 | 25772 ft | 217 kts | 197° |
| 2026-05-05 14:53 | 49.62069 | 14.90813 | 25769 ft | 217 kts | 197° |
| 2026-05-05 14:53 | 49.60590 | 14.90250 | 25766 ft | 217 kts | 197° |
| 2026-05-05 14:53 | 49.59135 | 14.89696 | 25769 ft | 217 kts | 197° |
| 2026-05-05 14:53 | 49.57662 | 14.89137 | 25770 ft | 217 kts | 197° |
| 2026-05-05 14:54 | 49.56206 | 14.88582 | 25769 ft | 217 kts | 197° |
| 2026-05-05 14:54 | 49.54732 | 14.88022 | 25769 ft | 217 kts | 197° |
| 2026-05-05 14:54 | 49.53263 | 14.87452 | 25772 ft | 216 kts | 200° |
| 2026-05-05 14:54 | 49.51878 | 14.86624 | 25783 ft | 215 kts | 205° |
| 2026-05-05 14:55 | 49.50497 | 14.85779 | 25776 ft | 215 kts | 204° |
| 2026-05-05 14:55 | 49.49098 | 14.84937 | 25775 ft | 215 kts | 204° |
| 2026-05-05 14:55 | 49.47698 | 14.84087 | 25779 ft | 216 kts | 204° |
| 2026-05-05 14:55 | 49.46313 | 14.83244 | 25771 ft | 216 kts | 204° |
| 2026-05-05 14:56 | 49.44909 | 14.82393 | 25771 ft | 216 kts | 204° |
| 2026-05-05 14:56 | 49.43523 | 14.81552 | 25771 ft | 216 kts | 204° |
| 2026-05-05 14:56 | 49.42117 | 14.80700 | 25770 ft | 216 kts | 204° |
| 2026-05-05 14:56 | 49.40726 | 14.79857 | 25769 ft | 216 kts | 204° |
| 2026-05-05 14:57 | 49.39320 | 14.79005 | 25767 ft | 216 kts | 204° |
| 2026-05-05 14:57 | 49.37930 | 14.78164 | 25768 ft | 216 kts | 204° |
| 2026-05-05 14:57 | 49.36535 | 14.77320 | 25772 ft | 216 kts | 204° |
| 2026-05-05 14:57 | 49.35127 | 14.76470 | 25766 ft | 216 kts | 204° |
| 2026-05-05 14:58 | 49.33734 | 14.75629 | 25766 ft | 216 kts | 204° |
| 2026-05-05 14:58 | 49.32344 | 14.74790 | 25764 ft | 216 kts | 204° |
| 2026-05-05 14:58 | 49.30936 | 14.73940 | 25758 ft | 216 kts | 204° |
| 2026-05-05 14:58 | 49.29547 | 14.73102 | 25764 ft | 216 kts | 204° |
| 2026-05-05 14:59 | 49.28159 | 14.72266 | 25761 ft | 216 kts | 204° |
| 2026-05-05 14:59 | 49.26751 | 14.71418 | 25758 ft | 216 kts | 204° |
| 2026-05-05 14:59 | 49.25367 | 14.70586 | 25764 ft | 216 kts | 204° |
| 2026-05-05 14:59 | 49.23960 | 14.69739 | 25761 ft | 216 kts | 204° |
| 2026-05-05 15:00 | 49.22555 | 14.68895 | 25761 ft | 216 kts | 204° |
| 2026-05-05 15:00 | 49.21623 | 14.68335 | 25758 ft | 216 kts | 204° |
| 2026-05-05 15:00 | 49.19757 | 14.67214 | 25758 ft | 216 kts | 204° |
| 2026-05-05 15:00 | 49.18377 | 14.66386 | 25758 ft | 216 kts | 204° |
| 2026-05-05 15:01 | 49.16975 | 14.65546 | 25755 ft | 216 kts | 204° |
| 2026-05-05 15:01 | 49.15574 | 14.64707 | 25759 ft | 216 kts | 204° |
| 2026-05-05 15:01 | 49.14173 | 14.63868 | 25754 ft | 216 kts | 204° |
| 2026-05-05 15:01 | 49.12791 | 14.63041 | 25757 ft | 216 kts | 204° |
| 2026-05-05 15:02 | 49.11382 | 14.62198 | 25756 ft | 216 kts | 204° |
| 2026-05-05 15:02 | 49.09997 | 14.61370 | 25756 ft | 216 kts | 204° |
| 2026-05-05 15:02 | 49.08594 | 14.60530 | 25751 ft | 216 kts | 204° |
| 2026-05-05 15:02 | 49.07191 | 14.59694 | 25753 ft | 216 kts | 203° |
| 2026-05-05 15:03 | 49.05810 | 14.58870 | 25754 ft | 215 kts | 203° |
| 2026-05-05 15:03 | 49.04408 | 14.58034 | 25752 ft | 216 kts | 203° |
| 2026-05-05 15:03 | 49.03021 | 14.57207 | 25751 ft | 216 kts | 203° |
| 2026-05-05 15:03 | 49.01615 | 14.56370 | 25748 ft | 215 kts | 203° |
| 2026-05-05 15:04 | 49.00188 | 14.55643 | 25756 ft | 216 kts | 197° |
| 2026-05-05 15:04 | 48.98744 | 14.55052 | 25751 ft | 216 kts | 198° |
| 2026-05-05 15:04 | 48.97309 | 14.54446 | 25751 ft | 216 kts | 198° |
| 2026-05-05 15:04 | 48.95857 | 14.53832 | 25753 ft | 216 kts | 198° |
| 2026-05-05 15:05 | 48.92963 | 14.52614 | 25757 ft | 216 kts | 198° |
| 2026-05-05 15:05 | 48.91505 | 14.52002 | 25751 ft | 216 kts | 198° |
| 2026-05-05 15:05 | 48.90069 | 14.51400 | 25750 ft | 216 kts | 198° |
| 2026-05-05 15:06 | 48.88613 | 14.50789 | 25752 ft | 216 kts | 198° |
| 2026-05-05 15:06 | 48.87175 | 14.50184 | 25747 ft | 216 kts | 198° |
| 2026-05-05 15:06 | 48.85712 | 14.49572 | 25750 ft | 216 kts | 198° |
| 2026-05-05 15:06 | 48.84279 | 14.48972 | 25742 ft | 216 kts | 198° |
| 2026-05-05 15:07 | 48.82819 | 14.48360 | 25742 ft | 216 kts | 198° |
| 2026-05-05 15:07 | 48.81384 | 14.47760 | 25740 ft | 216 kts | 197° |
| 2026-05-05 15:07 | 48.79944 | 14.47158 | 25741 ft | 215 kts | 197° |
| 2026-05-05 15:07 | 48.78494 | 14.46552 | 25744 ft | 215 kts | 197° |
| 2026-05-05 15:08 | 48.77037 | 14.45944 | 25744 ft | 216 kts | 197° |
| 2026-05-05 15:08 | 48.75606 | 14.45346 | 25745 ft | 215 kts | 197° |
| 2026-05-05 15:08 | 48.74154 | 14.44740 | 25743 ft | 215 kts | 197° |
| 2026-05-05 15:08 | 48.72720 | 14.44142 | 25743 ft | 215 kts | 197° |
| 2026-05-05 15:09 | 48.71269 | 14.43537 | 25745 ft | 216 kts | 197° |
| 2026-05-05 15:09 | 48.69815 | 14.42933 | 25745 ft | 216 kts | 197° |
| 2026-05-05 15:09 | 48.68373 | 14.42330 | 25745 ft | 216 kts | 197° |
| 2026-05-05 15:09 | 48.66931 | 14.41731 | 25739 ft | 216 kts | 197° |
| 2026-05-05 15:10 | 48.65472 | 14.41126 | 25739 ft | 216 kts | 197° |
| 2026-05-05 15:10 | 48.64035 | 14.40529 | 25741 ft | 216 kts | 197° |
| 2026-05-05 15:10 | 48.62580 | 14.39924 | 25738 ft | 216 kts | 197° |
| 2026-05-05 15:10 | 48.61138 | 14.39326 | 25739 ft | 216 kts | 197° |
| 2026-05-05 15:11 | 48.59686 | 14.38724 | 25741 ft | 216 kts | 197° |
| 2026-05-05 15:11 | 48.58251 | 14.38129 | 25739 ft | 215 kts | 197° |
| 2026-05-05 15:11 | 48.56798 | 14.37525 | 25741 ft | 215 kts | 197° |
| 2026-05-05 15:11 | 48.55371 | 14.36937 | 25738 ft | 215 kts | 197° |
| 2026-05-05 15:12 | 48.53925 | 14.36339 | 25738 ft | 215 kts | 197° |
| 2026-05-05 15:12 | 48.52485 | 14.35743 | 25736 ft | 216 kts | 197° |
| 2026-05-05 15:12 | 48.51024 | 14.35138 | 25736 ft | 216 kts | 197° |
| 2026-05-05 15:12 | 48.49585 | 14.34544 | 25733 ft | 216 kts | 197° |
| 2026-05-05 15:13 | 48.48131 | 14.33944 | 25734 ft | 216 kts | 197° |
| 2026-05-05 15:13 | 48.46680 | 14.33345 | 25734 ft | 216 kts | 197° |
| 2026-05-05 15:13 | 48.45244 | 14.32754 | 25736 ft | 215 kts | 197° |
| 2026-05-05 15:13 | 48.43797 | 14.32158 | 25733 ft | 215 kts | 197° |
| 2026-05-05 15:14 | 48.42368 | 14.31569 | 25733 ft | 215 kts | 197° |
| 2026-05-05 15:14 | 48.40924 | 14.30975 | 25733 ft | 214 kts | 197° |
| 2026-05-05 15:14 | 48.39493 | 14.30387 | 25733 ft | 215 kts | 197° |
| 2026-05-05 15:14 | 48.38044 | 14.29790 | 25734 ft | 215 kts | 197° |
| 2026-05-05 15:15 | 48.36589 | 14.29193 | 25735 ft | 215 kts | 197° |
| 2026-05-05 15:15 | 48.35153 | 14.28604 | 25733 ft | 215 kts | 197° |
| 2026-05-05 15:15 | 48.33711 | 14.28012 | 25741 ft | 215 kts | 197° |
| 2026-05-05 15:15 | 48.32268 | 14.27420 | 25738 ft | 214 kts | 197° |
| 2026-05-05 15:16 | 48.30844 | 14.26836 | 25741 ft | 214 kts | 197° |
| 2026-05-05 15:16 | 48.29400 | 14.26244 | 25742 ft | 214 kts | 197° |
| 2026-05-05 15:16 | 48.27971 | 14.25661 | 25740 ft | 214 kts | 197° |
| 2026-05-05 15:16 | 48.26530 | 14.25071 | 25740 ft | 214 kts | 197° |
| 2026-05-05 15:17 | 48.25102 | 14.24486 | 25739 ft | 214 kts | 197° |
| 2026-05-05 15:17 | 48.23666 | 14.23899 | 25740 ft | 213 kts | 197° |
| 2026-05-05 15:17 | 48.22224 | 14.23311 | 25739 ft | 213 kts | 197° |
| 2026-05-05 15:17 | 48.20805 | 14.22731 | 25742 ft | 213 kts | 197° |
| 2026-05-05 15:18 | 48.19371 | 14.22147 | 25744 ft | 213 kts | 197° |
| 2026-05-05 15:18 | 48.17939 | 14.21563 | 25737 ft | 213 kts | 197° |
| 2026-05-05 15:18 | 48.16515 | 14.20983 | 25739 ft | 213 kts | 197° |
| 2026-05-05 15:18 | 48.15087 | 14.20400 | 25738 ft | 212 kts | 197° |
| 2026-05-05 15:19 | 48.13672 | 14.19825 | 25740 ft | 213 kts | 197° |
| 2026-05-05 15:19 | 48.12237 | 14.19242 | 25737 ft | 213 kts | 197° |
| 2026-05-05 15:19 | 48.10824 | 14.18667 | 25739 ft | 212 kts | 197° |
| 2026-05-05 15:19 | 48.09386 | 14.18083 | 25737 ft | 212 kts | 197° |
| 2026-05-05 15:20 | 48.07969 | 14.17508 | 25736 ft | 212 kts | 197° |
| 2026-05-05 15:20 | 48.06538 | 14.16926 | 25732 ft | 212 kts | 197° |
| 2026-05-05 15:20 | 48.05131 | 14.16356 | 25735 ft | 212 kts | 197° |
| 2026-05-05 15:20 | 48.03702 | 14.15777 | 25736 ft | 212 kts | 197° |
| 2026-05-05 15:21 | 48.02270 | 14.15197 | 25737 ft | 212 kts | 197° |
| 2026-05-05 15:21 | 48.00856 | 14.14624 | 25739 ft | 212 kts | 197° |
| 2026-05-05 15:21 | 47.99447 | 14.14053 | 25737 ft | 212 kts | 197° |
| 2026-05-05 15:21 | 47.98018 | 14.13475 | 25738 ft | 212 kts | 197° |
| 2026-05-05 15:22 | 47.96585 | 14.12897 | 25740 ft | 212 kts | 197° |
| 2026-05-05 15:22 | 47.95173 | 14.12326 | 25736 ft | 212 kts | 197° |
| 2026-05-05 15:22 | 47.93741 | 14.11749 | 25740 ft | 212 kts | 197° |
| 2026-05-05 15:22 | 47.92326 | 14.11177 | 25742 ft | 212 kts | 197° |
| 2026-05-05 15:23 | 47.90883 | 14.10595 | 25744 ft | 213 kts | 197° |
| 2026-05-05 15:23 | 47.89470 | 14.10025 | 25746 ft | 213 kts | 197° |
| 2026-05-05 15:23 | 47.88034 | 14.09447 | 25747 ft | 212 kts | 197° |
| 2026-05-05 15:23 | 47.86615 | 14.08875 | 25751 ft | 213 kts | 197° |
| 2026-05-05 15:24 | 47.85167 | 14.08294 | 25752 ft | 214 kts | 197° |
| 2026-05-05 15:24 | 47.83738 | 14.07718 | 25755 ft | 213 kts | 197° |
| 2026-05-05 15:24 | 47.82302 | 14.07141 | 25759 ft | 213 kts | 197° |
| 2026-05-05 15:24 | 47.80879 | 14.06570 | 25749 ft | 213 kts | 197° |
| 2026-05-05 15:25 | 47.79452 | 14.05998 | 25766 ft | 212 kts | 197° |
| 2026-05-05 15:25 | 47.78040 | 14.05431 | 25767 ft | 212 kts | 197° |
| 2026-05-05 15:25 | 47.76616 | 14.04860 | 25773 ft | 212 kts | 197° |
| 2026-05-05 15:25 | 47.75185 | 14.04286 | 25770 ft | 212 kts | 197° |
| 2026-05-05 15:26 | 47.73757 | 14.03715 | 25773 ft | 212 kts | 197° |
| 2026-05-05 15:26 | 47.72342 | 14.03147 | 25774 ft | 212 kts | 197° |
| 2026-05-05 15:26 | 47.70910 | 14.02575 | 25778 ft | 212 kts | 197° |
| 2026-05-05 15:26 | 47.69491 | 14.02007 | 25782 ft | 214 kts | 197° |
| 2026-05-05 15:27 | 47.68053 | 14.01432 | 25786 ft | 214 kts | 197° |
| 2026-05-05 15:27 | 47.66605 | 14.00854 | 25782 ft | 214 kts | 197° |
| 2026-05-05 15:27 | 47.65163 | 14.00278 | 25788 ft | 214 kts | 197° |
| 2026-05-05 15:27 | 47.63736 | 13.99709 | 25794 ft | 214 kts | 197° |
| 2026-05-05 15:28 | 47.62292 | 13.99134 | 25793 ft | 214 kts | 197° |
| 2026-05-05 15:28 | 47.60869 | 13.98566 | 25790 ft | 214 kts | 197° |
| 2026-05-05 15:28 | 47.59431 | 13.97994 | 25802 ft | 213 kts | 197° |
| 2026-05-05 15:28 | 47.57997 | 13.97423 | 25804 ft | 213 kts | 197° |
| 2026-05-05 15:29 | 47.56576 | 13.96858 | 25805 ft | 213 kts | 197° |
| 2026-05-05 15:29 | 47.55141 | 13.96287 | 25807 ft | 213 kts | 197° |
| 2026-05-05 15:29 | 47.53705 | 13.95717 | 25810 ft | 213 kts | 197° |
| 2026-05-05 15:29 | 47.52289 | 13.95154 | 25812 ft | 212 kts | 197° |
| 2026-05-05 15:30 | 47.50860 | 13.94587 | 25816 ft | 213 kts | 197° |
| 2026-05-05 15:30 | 47.49428 | 13.94017 | 25812 ft | 212 kts | 197° |
| 2026-05-05 15:30 | 47.48008 | 13.93457 | 25825 ft | 211 kts | 197° |
| 2026-05-05 15:30 | 47.46605 | 13.92900 | 25827 ft | 211 kts | 197° |
| 2026-05-05 15:31 | 47.45181 | 13.92337 | 25827 ft | 211 kts | 197° |
| 2026-05-05 15:31 | 47.43758 | 13.91774 | 25831 ft | 211 kts | 197° |
| 2026-05-05 15:31 | 47.42336 | 13.91211 | 25830 ft | 211 kts | 197° |
| 2026-05-05 15:31 | 47.40928 | 13.90653 | 25831 ft | 211 kts | 197° |
| 2026-05-05 15:32 | 47.39507 | 13.90092 | 25838 ft | 211 kts | 197° |
| 2026-05-05 15:32 | 47.38078 | 13.89528 | 25839 ft | 212 kts | 197° |
| 2026-05-05 15:32 | 47.36646 | 13.88962 | 25839 ft | 212 kts | 197° |
| 2026-05-05 15:32 | 47.35225 | 13.88402 | 25846 ft | 211 kts | 197° |
| 2026-05-05 15:33 | 47.33820 | 13.87850 | 25840 ft | 211 kts | 198° |
| 2026-05-05 15:33 | 47.32396 | 13.87287 | 25845 ft | 212 kts | 197° |
| 2026-05-05 15:33 | 47.30964 | 13.86722 | 25852 ft | 212 kts | 197° |
| 2026-05-05 15:33 | 47.29560 | 13.86171 | 25855 ft | 210 kts | 198° |
| 2026-05-05 15:34 | 47.28142 | 13.85613 | 25864 ft | 210 kts | 198° |
| 2026-05-05 15:34 | 47.26723 | 13.85053 | 25859 ft | 210 kts | 197° |
| 2026-05-05 15:34 | 47.25328 | 13.84507 | 25866 ft | 210 kts | 197° |
| 2026-05-05 15:34 | 47.23910 | 13.83951 | 25864 ft | 211 kts | 197° |
| 2026-05-05 15:35 | 47.22507 | 13.83398 | 25870 ft | 210 kts | 198° |
| 2026-05-05 15:35 | 47.21089 | 13.82842 | 25867 ft | 210 kts | 198° |
| 2026-05-05 15:35 | 47.19677 | 13.82289 | 25875 ft | 210 kts | 198° |
| 2026-05-05 15:35 | 47.18274 | 13.81739 | 25876 ft | 210 kts | 198° |
| 2026-05-05 15:36 | 47.16859 | 13.81184 | 25878 ft | 210 kts | 198° |
| 2026-05-05 15:36 | 47.15447 | 13.80632 | 25880 ft | 210 kts | 198° |
| 2026-05-05 15:36 | 47.14030 | 13.80076 | 25881 ft | 209 kts | 198° |
| 2026-05-05 15:36 | 47.12638 | 13.79534 | 25878 ft | 209 kts | 198° |
| 2026-05-05 15:37 | 47.11227 | 13.78983 | 25886 ft | 208 kts | 198° |
| 2026-05-05 15:37 | 47.09819 | 13.78432 | 25885 ft | 209 kts | 198° |
| 2026-05-05 15:37 | 47.08431 | 13.77890 | 25889 ft | 208 kts | 198° |
| 2026-05-05 15:37 | 47.07021 | 13.77340 | 25893 ft | 208 kts | 198° |
| 2026-05-05 15:38 | 47.05613 | 13.76791 | 25896 ft | 208 kts | 198° |
| 2026-05-05 15:38 | 47.04232 | 13.76252 | 25894 ft | 207 kts | 198° |
| 2026-05-05 15:38 | 47.02830 | 13.75708 | 25900 ft | 208 kts | 198° |
| 2026-05-05 15:38 | 47.01449 | 13.75171 | 25906 ft | 206 kts | 198° |
| 2026-05-05 15:39 | 47.00058 | 13.74628 | 25907 ft | 206 kts | 198° |
| 2026-05-05 15:39 | 46.98664 | 13.74085 | 25907 ft | 206 kts | 198° |
| 2026-05-05 15:39 | 46.97291 | 13.73552 | 25907 ft | 207 kts | 198° |
| 2026-05-05 15:39 | 46.95886 | 13.73007 | 25913 ft | 206 kts | 198° |
| 2026-05-05 15:40 | 46.94511 | 13.72472 | 25914 ft | 205 kts | 197° |
| 2026-05-05 15:40 | 46.93142 | 13.71943 | 25915 ft | 205 kts | 198° |
| 2026-05-05 15:40 | 46.91749 | 13.71403 | 25915 ft | 206 kts | 198° |
| 2026-05-05 15:40 | 46.90374 | 13.70868 | 25916 ft | 206 kts | 198° |
| 2026-05-05 15:41 | 46.88978 | 13.70328 | 25922 ft | 206 kts | 198° |
| 2026-05-05 15:41 | 46.87599 | 13.69794 | 25922 ft | 206 kts | 198° |
| 2026-05-05 15:41 | 46.86206 | 13.69255 | 25926 ft | 207 kts | 197° |
| 2026-05-05 15:41 | 46.84807 | 13.68713 | 25923 ft | 208 kts | 198° |
| 2026-05-05 15:42 | 46.83418 | 13.68175 | 25927 ft | 208 kts | 198° |
| 2026-05-05 15:42 | 46.82042 | 13.67644 | 25931 ft | 205 kts | 198° |
| 2026-05-05 15:42 | 46.80657 | 13.67111 | 25933 ft | 205 kts | 198° |
| 2026-05-05 15:42 | 46.79277 | 13.66576 | 25942 ft | 205 kts | 198° |
| 2026-05-05 15:43 | 46.77908 | 13.66050 | 25938 ft | 206 kts | 198° |
| 2026-05-05 15:43 | 46.76517 | 13.65513 | 25938 ft | 207 kts | 198° |
| 2026-05-05 15:43 | 46.75121 | 13.64974 | 25940 ft | 207 kts | 198° |
| 2026-05-05 15:43 | 46.73737 | 13.64441 | 25946 ft | 208 kts | 198° |
| 2026-05-05 15:44 | 46.72331 | 13.63899 | 25946 ft | 208 kts | 198° |
| 2026-05-05 15:44 | 46.70942 | 13.63366 | 25946 ft | 208 kts | 198° |
| 2026-05-05 15:44 | 46.69545 | 13.62829 | 25946 ft | 208 kts | 198° |
| 2026-05-05 15:44 | 46.68140 | 13.62289 | 25952 ft | 206 kts | 197° |
| 2026-05-05 15:45 | 46.66759 | 13.61760 | 25960 ft | 207 kts | 198° |
| 2026-05-05 15:45 | 46.65364 | 13.61223 | 25954 ft | 206 kts | 198° |
| 2026-05-05 15:45 | 46.63986 | 13.60694 | 25959 ft | 207 kts | 198° |
| 2026-05-05 15:45 | 46.62581 | 13.60156 | 25957 ft | 207 kts | 198° |
| 2026-05-05 15:46 | 46.61200 | 13.59625 | 25964 ft | 207 kts | 198° |
| 2026-05-05 15:46 | 46.59799 | 13.59089 | 25966 ft | 208 kts | 198° |
| 2026-05-05 15:46 | 46.58392 | 13.58549 | 25969 ft | 208 kts | 198° |
| 2026-05-05 15:46 | 46.57002 | 13.58018 | 25969 ft | 208 kts | 198° |
| 2026-05-05 15:47 | 46.55592 | 13.57479 | 25975 ft | 208 kts | 198° |
| 2026-05-05 15:47 | 46.54679 | 13.57130 | 25968 ft | 208 kts | 198° |
| 2026-05-05 15:47 | 46.52791 | 13.56520 | 25969 ft | 208 kts | 195° |
| 2026-05-05 15:47 | 46.51377 | 13.56104 | 25974 ft | 209 kts | 195° |
| 2026-05-05 15:48 | 46.49942 | 13.55677 | 25981 ft | 209 kts | 195° |
| 2026-05-05 15:48 | 46.48523 | 13.55255 | 25979 ft | 209 kts | 195° |
| 2026-05-05 15:48 | 46.47087 | 13.54830 | 25979 ft | 210 kts | 195° |
| 2026-05-05 15:48 | 46.45669 | 13.54410 | 25982 ft | 210 kts | 196° |
| 2026-05-05 15:49 | 46.44230 | 13.53983 | 25984 ft | 210 kts | 196° |
| 2026-05-05 15:49 | 46.42790 | 13.53558 | 25986 ft | 211 kts | 196° |
| 2026-05-05 15:49 | 46.41361 | 13.53135 | 25984 ft | 211 kts | 196° |
| 2026-05-05 15:49 | 46.39889 | 13.52689 | 25694 ft | 222 kts | 197° |
| 2026-05-05 15:50 | 46.38317 | 13.52203 | 25139 ft | 239 kts | 196° |
| 2026-05-05 15:50 | 46.36672 | 13.51703 | 24547 ft | 246 kts | 195° |
| 2026-05-05 15:50 | 46.34975 | 13.51194 | 23935 ft | 249 kts | 195° |
| 2026-05-05 15:50 | 46.33286 | 13.50688 | 23285 ft | 250 kts | 195° |
| 2026-05-05 15:51 | 46.31607 | 13.50185 | 22667 ft | 242 kts | 196° |
| 2026-05-05 15:51 | 46.29975 | 13.49697 | 22082 ft | 237 kts | 196° |
| 2026-05-05 15:51 | 46.28376 | 13.49216 | 21542 ft | 230 kts | 196° |
| 2026-05-05 15:51 | 46.27339 | 13.48906 | 21231 ft | 227 kts | 197° |
| 2026-05-05 15:52 | 46.25301 | 13.48295 | 20630 ft | 224 kts | 197° |
| 2026-05-05 15:52 | 46.24290 | 13.47991 | 20330 ft | 223 kts | 197° |
| 2026-05-05 15:52 | 46.22776 | 13.47539 | 19892 ft | 221 kts | 197° |
| 2026-05-05 15:52 | 46.20786 | 13.46946 | 19302 ft | 220 kts | 197° |
| 2026-05-05 15:53 | 46.19290 | 13.46520 | 18912 ft | 216 kts | 197° |
| 2026-05-05 15:53 | 46.18315 | 13.46244 | 18669 ft | 213 kts | 197° |
| 2026-05-05 15:53 | 46.16391 | 13.45692 | 18154 ft | 211 kts | 197° |
| 2026-05-05 15:53 | 46.14958 | 13.45279 | 17746 ft | 209 kts | 197° |
| 2026-05-05 15:54 | 46.14010 | 13.45007 | 17527 ft | 207 kts | 197° |
| 2026-05-05 15:54 | 46.12594 | 13.44601 | 17241 ft | 207 kts | 197° |
| 2026-05-05 15:54 | 46.11176 | 13.44195 | 16951 ft | 206 kts | 198° |
| 2026-05-05 15:54 | 46.09785 | 13.43797 | 16674 ft | 205 kts | 198° |
| 2026-05-05 15:55 | 46.08392 | 13.43397 | 16386 ft | 205 kts | 198° |
| 2026-05-05 15:55 | 46.06985 | 13.42992 | 15981 ft | 206 kts | 198° |
| 2026-05-05 15:55 | 46.05573 | 13.42589 | 15587 ft | 207 kts | 198° |
| 2026-05-05 15:55 | 46.04176 | 13.42190 | 15171 ft | 208 kts | 198° |
| 2026-05-05 15:56 | 46.02753 | 13.41782 | 14692 ft | 208 kts | 198° |
| 2026-05-05 15:56 | 46.01334 | 13.41376 | 14219 ft | 208 kts | 198° |
| 2026-05-05 15:56 | 45.99910 | 13.40968 | 13741 ft | 207 kts | 198° |
| 2026-05-05 15:56 | 45.98518 | 13.40560 | 13216 ft | 205 kts | 198° |
| 2026-05-05 15:57 | 45.97120 | 13.40150 | 12696 ft | 203 kts | 198° |
| 2026-05-05 15:57 | 45.95735 | 13.39746 | 12179 ft | 201 kts | 198° |
| 2026-05-05 15:57 | 45.94383 | 13.39350 | 11683 ft | 199 kts | 198° |
| 2026-05-05 15:57 | 45.93027 | 13.38955 | 11188 ft | 198 kts | 198° |
| 2026-05-05 15:58 | 45.91673 | 13.38560 | 10698 ft | 198 kts | 198° |
| 2026-05-05 15:58 | 45.90339 | 13.38171 | 10222 ft | 197 kts | 197° |
| 2026-05-05 15:58 | 45.88992 | 13.37778 | 9728 ft | 196 kts | 197° |
| 2026-05-05 15:58 | 45.87648 | 13.37386 | 9207 ft | 196 kts | 197° |
| 2026-05-05 15:59 | 45.86326 | 13.37001 | 8694 ft | 195 kts | 197° |
| 2026-05-05 15:59 | 45.84996 | 13.36614 | 8191 ft | 194 kts | 196° |
| 2026-05-05 15:59 | 45.83671 | 13.36228 | 7738 ft | 191 kts | 196° |
| 2026-05-05 15:59 | 45.82375 | 13.35979 | 7308 ft | 191 kts | 185° |
| 2026-05-05 16:00 | 45.81051 | 13.35999 | 7000 ft | 186 kts | 185° |
| 2026-05-05 16:00 | 45.79775 | 13.35986 | 6803 ft | 181 kts | 185° |
| 2026-05-05 16:00 | 45.78525 | 13.35972 | 6580 ft | 178 kts | 185° |
| 2026-05-05 16:00 | 45.77311 | 13.35807 | 6384 ft | 174 kts | 199° |
| 2026-05-05 16:01 | 45.76231 | 13.35115 | 6160 ft | 172 kts | 215° |
| 2026-05-05 16:01 | 45.75350 | 13.33967 | 5934 ft | 172 kts | 232° |
| 2026-05-05 16:01 | 45.74768 | 13.32488 | 5713 ft | 174 kts | 249° |
| 2026-05-05 16:01 | 45.74539 | 13.30772 | 5470 ft | 178 kts | 266° |
| 2026-05-05 16:02 | 45.74555 | 13.28975 | 5228 ft | 181 kts | 268° |
| 2026-05-05 16:02 | 45.74557 | 13.27178 | 4990 ft | 182 kts | 268° |
| 2026-05-05 16:02 | 45.74564 | 13.25361 | 4757 ft | 181 kts | 270° |
| 2026-05-05 16:02 | 45.74847 | 13.23614 | 4526 ft | 185 kts | 291° |
| 2026-05-05 16:03 | 45.75577 | 13.22080 | 4276 ft | 189 kts | 312° |
| 2026-05-05 16:03 | 45.76670 | 13.21009 | 4030 ft | 193 kts | 335° |
| 2026-05-05 16:03 | 45.77966 | 13.20592 | 3778 ft | 195 kts | 358° |
| 2026-05-05 16:03 | 45.79320 | 13.20614 | 3557 ft | 192 kts | 0° |
| 2026-05-05 16:04 | 45.80637 | 13.20890 | 3278 ft | 195 kts | 21° |
| 2026-05-05 16:04 | 45.81793 | 13.21914 | 3014 ft | 197 kts | 45° |
| 2026-05-05 16:04 | 45.82577 | 13.23486 | 2807 ft | 193 kts | 69° |
| 2026-05-05 16:04 | 45.82863 | 13.25326 | 2603 ft | 185 kts | 92° |
| 2026-05-05 16:05 | 45.82847 | 13.27126 | 2404 ft | 181 kts | 94° |
| 2026-05-05 16:05 | 45.82845 | 13.28920 | 2277 ft | 176 kts | 93° |
| 2026-05-05 16:05 | 45.82840 | 13.30652 | 2082 ft | 176 kts | 93° |
| 2026-05-05 16:05 | 45.82835 | 13.32390 | 1860 ft | 171 kts | 93° |
| 2026-05-05 16:06 | 45.82830 | 13.34077 | 1626 ft | 168 kts | 92° |
| 2026-05-05 16:06 | 45.82824 | 13.35725 | 1390 ft | 164 kts | 92° |
| 2026-05-05 16:06 | 45.82820 | 13.37295 | 1164 ft | 150 kts | 91° |
| 2026-05-05 16:06 | 45.82815 | 13.38696 | 947 ft | 129 kts | 90° |
| 2026-05-05 16:07 | 45.82808 | 13.39817 | 772 ft | 100 kts | 90° |
| 2026-05-05 16:07 | 45.82808 | 13.40801 | 602 ft | 97 kts | 87° |
| 2026-05-05 16:07 | 45.82805 | 13.41755 | 503 ft | 94 kts | 88° |
| 2026-05-05 16:07 | 45.82799 | 13.42695 | 391 ft | 93 kts | 88° |
| 2026-05-05 16:08 | 45.82808 | 13.43624 | 259 ft | 93 kts | 87° |
| 2026-05-05 16:08 | 45.82796 | 13.44517 | 153 ft | 88 kts | 88° |
| 2026-05-05 16:08 | 45.82796 | 13.45394 | 54 ft | 89 kts | 88° |
| 2026-05-05 16:08 | 45.82792 | 13.46202 | 40 ft | 71 kts | 91° |
| 2026-05-05 16:09 | 45.82789 | 13.46756 | 40 ft | 43 kts | 90° |
| 2026-05-05 16:09 | 45.82787 | 13.47094 | 42 ft | 25 kts | 91° |
| 2026-05-05 16:09 | 45.82784 | 13.47352 | 42 ft | 30 kts | 91° |
| 2026-05-05 16:09 | 45.82783 | 13.47605 | 42 ft | 15 kts | 89° |
| 2026-05-05 16:10 | 45.82732 | 13.47688 | 42 ft | 12 kts | 141° |
| 2026-05-05 16:10 | 45.82664 | 13.47767 | 40 ft | 14 kts | 139° |
| 2026-05-05 16:10 | 45.82589 | 13.47857 | 40 ft | 14 kts | 138° |
| 2026-05-05 16:10 | 45.82511 | 13.47954 | 40 ft | 15 kts | 141° |
| 2026-05-05 16:11 | 45.82432 | 13.48053 | 40 ft | 15 kts | 139° |
| 2026-05-05 16:11 | 45.82239 | 13.48164 | 40 ft | 9 kts | 262° |
| 2026-05-05 16:12 | 45.82234 | 13.48105 | 40 ft | 1 kts | 294° |
| 2026-05-05 16:12 | 45.82286 | 13.48073 | 40 ft | 4 kts | 219° |
| 2026-05-05 16:13 | 45.82272 | 13.48076 | 40 ft | 0 kts | 167° |